Board Tree, Kentucky
Current Conditions -  °F | °C
As of 1:55 PM on Saturday 25 Oct 2014 (Local Time) from KPBX Reporting Station
Overcast Overcast  
Wind Chill: 62°   Ceiling: 6000
Heat Index: 62°   Visibility: 10mi
Dew Point: 49°   Wind: 0mph
Humidity: 62%   Direction: NA
Pressure: 30.02"   Gusts: NA
Location:  37.5459°N, 82.1376°W
Report Text: KPBX 251755Z AUTO 00000KT 10SM SCT048 OVC060 17/09 A3002 RMK AO2 T01660092 10166 20040
Loading
Personal Weather Stations






























Interactive Weather Map
Tropical Storm Tracking
New forecast layout! Learn more

10-Day Weather Forecast

Advertisements
Track Severe Weather on mobile